Terminal Aerodrome Forecast
Issued by NWS Louisville, KY

Current Version | Previous Version | Text Only | Print | Product List | Glossary On
Versions: 1 2 3 4 5 6 7 8 9 10 11 12 13 14 15 16 17 18 19
000
FTUS43 KLMK 291125
TAFBWG
TAF
KBWG 291125Z 2912/3012 08007KT P6SM FEW018
     FM291800 10010KT P6SM SCT025 SCT200
     FM300000 12007KT P6SM BKN200=

USA.gov is the U.S. government's official web portal to all federal, state and local government web resources and services.